Terminal Aerodrome Forecast
Issued by NWS Cleveland, OH

Home | Current Version | Previous Version | Text Only | Print | Product List | Glossary On
Versions: 1 2 3 4 5 6 7 8 9 10 11 12 13 14 15 16
552
FTUS41 KCLE 171512 AAA
TAFERI
TAF AMD
KERI 171512Z 1715/1812 15012KT 6SM -SHRA BR VCTS OVC017CB
      TEMPO 1715/1717 17015G22KT 3SM -SHRA BR OVC008
     FM171700 16014G22KT P6SM -SHRA SCT008 OVC015
     FM172100 25012G20KT 6SM BR VCSH OVC008=

USA.gov is the U.S. government's official web portal to all federal, state and local government web resources and services.